Time;durP1;ratioP1;P1;durP2;ratioP2;P2;SDS_P1;SDS_P2;PMS_P1;PMS_P2;Temp;Humidity;BMP_temperature;BMP_pressure;BME280_temperature;BME280_humidity;BME280_pressure;Samples;Min_cycle;Max_cycle;Signal;HPM_P1;HPM_P2
2022/04/20 00:02:08;;;;;;;0.60;0.60;;;5.80;69.40;;;4.80;56.27;94731.91;5044792;28;20255;-89
2022/04/20 00:04:35;;;;;;;0.70;0.70;;;5.80;69.40;;;4.84;56.34;94747.19;5078159;28;20211;-87
2022/04/20 00:07:03;;;;;;;0.60;0.60;;;5.80;69.60;;;4.75;56.36;94728.19;5044443;28;20277;-88
2022/04/20 00:09:30;;;;;;;0.70;0.70;;;5.80;69.70;;;4.84;56.75;94750.59;5059593;28;20233;-88
2022/04/20 00:11:58;;;;;;;0.60;0.60;;;5.80;69.70;;;4.83;57.24;94756.75;5077409;28;20253;-88
2022/04/20 00:14:26;;;;;;;0.60;0.60;;;5.70;69.80;;;4.80;57.47;94751.91;5061636;28;20209;-88
2022/04/20 00:16:53;;;;;;;0.60;0.60;;;5.80;70.10;;;4.79;57.48;94752.88;5060137;28;20305;-89
2022/04/20 00:19:20;;;;;;;0.80;0.80;;;5.70;70.10;;;4.63;57.21;94735.47;5047711;28;20218;-89
2022/04/20 00:21:47;;;;;;;0.57;0.57;;;5.70;70.00;;;4.83;57.61;94761.97;5044712;28;20290;-88
2022/04/20 00:24:14;;;;;;;0.70;0.70;;;5.70;70.10;;;4.67;57.20;94734.16;5044255;28;20325;-89
2022/04/20 00:26:41;;;;;;;0.65;0.65;;;5.80;70.10;;;4.71;56.79;94738.09;5043941;28;20204;-88
2022/04/20 00:29:08;;;;;;;0.70;0.70;;;5.70;70.00;;;4.76;56.82;94735.81;5057008;28;20223;-89
2022/04/20 00:31:35;;;;;;;0.80;0.80;;;5.70;69.90;;;4.71;56.95;94734.66;5057099;28;20247;-89
2022/04/20 00:34:02;;;;;;;0.70;0.70;;;5.70;69.90;;;4.80;56.36;94746.69;5040966;28;20271;-88
2022/04/20 00:36:29;;;;;;;0.75;0.75;;;5.70;69.80;;;4.76;56.40;94733.22;5055438;28;20199;-88
2022/04/20 00:38:56;;;;;;;0.60;0.60;;;5.80;69.80;;;4.79;56.18;94734.69;5024430;28;20206;-88
2022/04/20 00:41:24;;;;;;;0.70;0.70;;;5.70;69.60;;;4.71;55.97;94735.50;5056900;28;20198;-88
2022/04/20 00:43:51;;;;;;;0.70;0.70;;;5.70;69.50;;;4.62;56.23;94723.44;5057262;28;20203;-88
2022/04/20 00:46:22;;;;;;;0.60;0.60;;;5.70;69.30;;;4.53;55.68;94724.38;5046086;28;20195;-88
2022/04/20 00:48:51;;;;;;;0.70;0.70;;;5.60;69.20;;;4.46;55.29;94725.03;5043621;28;20237;-88
2022/04/20 00:51:19;;;;;;;0.80;0.80;;;5.60;69.10;;;4.36;55.72;94728.72;5059294;28;20206;-88
2022/04/20 00:53:48;;;;;;;0.70;0.70;;;5.50;68.80;;;4.25;55.50;94727.25;5059950;28;20356;-88
2022/04/20 00:56:18;;;;;;;0.70;0.70;;;5.50;68.70;;;4.14;55.56;94723.16;5043284;28;20202;-88
2022/04/20 00:58:46;;;;;;;0.70;0.70;;;5.40;68.60;;;4.01;55.53;94726.97;5060032;28;20222;-88
2022/04/20 01:01:14;;;;;;;0.70;0.70;;;5.30;68.60;;;3.75;55.52;94708.03;5059674;28;20203;-88
2022/04/20 01:03:45;;;;;;;0.70;0.70;;;5.20;68.50;;;3.85;55.60;94738.09;5060325;28;20205;-88
2022/04/20 01:06:26;;;;;;;0.70;0.70;;;5.10;68.60;;;3.74;55.59;94734.97;5046816;28;20294;-87
2022/04/20 01:09:01;;;;;;;0.70;0.70;;;5.10;68.50;;;3.58;55.42;94730.50;5045455;28;20221;-88
2022/04/20 01:11:51;;;;;;;0.60;0.60;;;5.00;68.50;;;3.56;56.00;94742.81;5065411;28;20236;-87
2022/04/20 01:14:31;;;;;;;0.70;0.70;;;4.90;68.90;;;3.44;55.93;94732.69;5062024;28;20214;-88
2022/04/20 01:17:36;;;;;;;0.80;0.80;;;4.80;68.50;;;3.32;55.55;94733.88;5081821;28;20226;-87
2022/04/20 01:20:19;;;;;;;0.80;0.80;;;4.70;68.50;;;3.30;55.30;94744.41;5062737;28;20231;-87
2022/04/20 01:23:06;;;;;;;0.70;0.70;;;4.60;68.60;;;3.27;55.45;94749.91;5072505;28;20210;-88
2022/04/20 01:25:48;;;;;;;0.60;0.60;;;4.60;68.60;;;3.18;56.26;94754.19;5061781;28;20599;-88
2022/04/20 01:28:22;;;;;;;0.80;0.80;;;4.50;68.80;;;3.16;58.88;94763.91;5046308;28;20229;-88
2022/04/20 01:30:56;;;;;;;0.70;0.70;;;4.50;70.00;;;3.17;59.51;94764.72;5060779;28;20218;-87
2022/04/20 01:33:37;;;;;;;0.77;0.77;;;4.40;70.60;;;3.16;59.17;94757.91;5061453;28;20328;-86
2022/04/20 01:36:05;;;;;;;0.80;0.80;;;4.40;70.80;;;3.13;60.54;94764.19;5038737;28;20191;-87
2022/04/20 01:38:32;;;;;;;0.77;0.77;;;4.30;71.30;;;2.99;60.25;94731.03;5063730;28;20199;-88
2022/04/20 01:40:59;;;;;;;0.77;0.77;;;4.30;71.50;;;3.18;60.65;94761.16;5042558;28;20211;-88
2022/04/20 01:43:27;;;;;;;0.90;0.90;;;4.30;71.80;;;3.19;60.75;94761.00;5039495;28;20202;-88
2022/04/20 01:46:15;;;;;;;0.70;0.70;;;4.30;71.90;;;3.17;61.96;94751.75;5033100;28;20202;-87
2022/04/20 01:49:02;;;;;;;0.80;0.80;;;4.30;71.90;;;3.16;61.84;94747.53;5064835;28;20233;-88
2022/04/20 01:51:47;;;;;;;0.70;0.70;;;4.30;72.10;;;3.20;62.18;94754.06;5061335;28;20223;-87
2022/04/20 01:54:28;;;;;;;0.80;0.80;;;4.20;72.10;;;3.19;62.20;94744.66;5042722;28;20254;-87
2022/04/20 01:57:27;;;;;;;0.80;0.80;;;4.20;72.40;;;3.18;62.19;94738.66;5050947;28;20676;-87
2022/04/20 02:00:18;;;;;;;0.70;0.70;;;4.20;72.40;;;3.17;62.04;94738.81;5068247;28;20227;-87
2022/04/20 02:03:15;;;;;;;0.70;0.70;;;4.20;72.30;;;3.16;61.39;94734.59;5054550;28;20300;-89
2022/04/20 02:05:54;;;;;;;0.70;0.70;;;4.30;72.10;;;3.13;62.13;94738.28;5042106;28;20712;-88
2022/04/20 02:08:38;;;;;;;0.80;0.80;;;4.20;72.30;;;3.17;62.00;94738.81;5055932;28;20280;-87
2022/04/20 02:11:35;;;;;;;0.80;0.80;;;4.20;72.50;;;3.19;61.57;94732.50;5038962;28;20293;-87
2022/04/20 02:14:13;;;;;;;0.80;0.80;;;4.20;72.30;;;3.21;61.13;94724.59;5045341;28;20234;-88
2022/04/20 02:16:43;;;;;;;0.90;0.90;;;4.20;72.30;;;3.28;61.28;94723.00;5059561;28;20210;-88
2022/04/20 02:19:20;;;;;;;0.70;0.70;;;4.20;72.20;;;3.10;61.56;94696.31;5060370;28;20229;-87
2022/04/20 02:22:10;;;;;;;0.70;0.70;;;4.20;72.30;;;3.18;62.27;94712.72;5073272;28;20285;-87
2022/04/20 02:24:37;;;;;;;0.70;0.70;;;4.30;72.70;;;3.18;62.06;94717.91;5070982;28;20226;-87
2022/04/20 02:27:08;;;;;;;0.80;0.80;;;4.30;73.70;;;3.33;61.74;94738.94;5058401;28;20229;-87
2022/04/20 02:29:37;;;;;;;0.77;0.77;;;4.30;72.80;;;3.35;61.80;94729.22;5047374;28;20217;-88
2022/04/20 02:32:06;;;;;;;0.70;0.70;;;4.30;72.90;;;3.38;62.23;94742.84;5066695;28;20195;-87
2022/04/20 02:34:34;;;;;;;0.85;0.85;;;4.30;73.10;;;3.23;62.15;94716.66;5065264;28;20301;-88
2022/04/20 02:37:04;;;;;;;1.00;1.00;;;4.30;73.10;;;3.41;62.24;94738.16;5057812;28;20201;-87
2022/04/20 02:39:33;;;;;;;0.75;0.75;;;4.30;73.30;;;3.39;62.49;94737.50;5057743;28;20246;-88
2022/04/20 02:42:00;;;;;;;0.70;0.70;;;4.30;73.30;;;3.40;62.17;94730.56;5058333;28;20187;-87
2022/04/20 02:44:27;;;;;;;0.80;0.80;;;4.30;73.10;;;3.34;62.32;94726.78;5064078;28;20218;-87
2022/04/20 02:46:55;;;;;;;0.80;0.80;;;4.40;73.30;;;3.31;62.25;94727.09;5080571;28;20205;-88
2022/04/20 02:49:22;;;;;;;0.80;0.80;;;4.30;73.20;;;3.39;61.90;94734.91;5057898;28;20262;-88
2022/04/20 02:51:49;;;;;;;0.80;0.80;;;4.40;73.20;;;3.42;61.65;94731.19;5041197;28;20249;-88
2022/04/20 02:54:16;;;;;;;0.80;0.80;;;4.30;73.10;;;3.37;61.41;94723.91;5058147;28;20715;-87
2022/04/20 02:56:43;;;;;;;0.70;0.70;;;4.40;73.10;;;3.47;61.18;94732.38;5072490;28;20191;-88
2022/04/20 02:59:11;;;;;;;0.70;0.70;;;4.40;73.00;;;3.55;60.86;94738.59;5058122;28;20242;-88
2022/04/20 03:01:40;;;;;;;0.70;0.70;;;4.40;72.90;;;3.47;60.93;94716.03;5058747;28;20187;-88
2022/04/20 03:04:13;;;;;;;0.80;0.80;;;4.40;72.80;;;3.62;60.54;94737.81;5060680;28;20223;-88
2022/04/20 03:06:41;;;;;;;0.70;0.70;;;4.50;72.80;;;3.63;60.73;94733.44;5061523;28;20206;-87
2022/04/20 03:09:19;;;;;;;0.70;0.70;;;4.50;72.70;;;3.66;60.46;94740.91;5079634;28;20214;-88
2022/04/20 03:11:46;;;;;;;0.70;0.70;;;4.50;72.70;;;3.69;60.41;94740.63;5046633;28;20278;-88
2022/04/20 03:14:14;;;;;;;0.80;0.80;;;4.50;72.60;;;3.55;61.07;94716.03;5027074;28;20233;-87
2022/04/20 03:16:42;;;;;;;0.80;0.80;;;4.60;72.70;;;3.68;61.13;94734.59;5045846;28;20301;-88
2022/04/20 03:19:12;;;;;;;0.70;0.70;;;4.60;72.90;;;3.68;61.00;94736.38;5077814;28;20225;-88
2022/04/20 03:21:39;;;;;;;0.90;0.90;;;4.60;72.80;;;3.68;60.54;94744.16;5061286;28;20206;-87
2022/04/20 03:24:06;;;;;;;0.90;0.90;;;4.60;72.60;;;3.64;60.66;94743.66;5072930;28;20310;-88
2022/04/20 03:26:49;;;;;;;0.90;0.90;;;4.60;72.50;;;3.67;60.50;94747.72;5052483;28;20555;-88
2022/04/20 03:29:23;;;;;;;0.80;0.80;;;4.60;72.40;;;3.67;60.10;94751.16;5074959;28;20210;-87
2022/04/20 03:31:50;;;;;;;0.70;0.70;;;4.60;72.30;;;3.60;60.48;94739.75;5058919;28;20187;-88
2022/04/20 03:34:17;;;;;;;0.70;0.70;;;4.60;72.40;;;3.66;60.45;94743.50;5059464;28;20250;-88
2022/04/20 03:36:47;;;;;;;0.80;0.80;;;4.60;72.30;;;3.62;60.44;94726.63;5066427;28;20221;-88
2022/04/20 03:39:14;;;;;;;0.70;0.70;;;4.60;72.40;;;3.74;60.01;94740.97;5043631;28;20226;-87
2022/04/20 03:41:43;;;;;;;0.70;0.70;;;4.60;72.20;;;3.77;60.20;94739.84;5044001;28;20203;-88
2022/04/20 03:44:10;;;;;;;0.70;0.70;;;4.70;72.30;;;3.81;60.12;94736.00;5076957;28;20214;-87
2022/04/20 03:46:37;;;;;;;0.70;0.70;;;4.70;72.30;;;3.83;59.89;94737.47;5060364;28;20260;-87
2022/04/20 03:49:04;;;;;;;0.80;0.80;;;4.70;72.20;;;3.86;59.74;94733.75;5040186;28;20223;-88
2022/04/20 03:51:32;;;;;;;0.80;0.80;;;4.70;72.20;;;3.82;59.72;94727.22;5072577;28;20264;-88
2022/04/20 03:54:01;;;;;;;0.80;0.80;;;4.70;72.20;;;3.85;59.92;94732.09;5045662;28;20734;-88
2022/04/20 03:57:03;;;;;;;0.70;0.70;;;4.80;72.20;;;3.88;59.36;94726.59;5058803;28;20684;-87
2022/04/20 03:59:20;;;;;;;0.70;0.70;;;4.80;72.20;;;3.90;59.31;94729.06;5059805;28;20226;-87
2022/04/20 04:01:49;;;;;;;0.80;0.80;;;4.80;73.10;;;3.94;59.46;94727.75;5040202;28;20210;-85
2022/04/20 04:04:16;;;;;;;0.70;0.70;;;4.80;72.20;;;3.87;58.90;94717.22;5057588;28;20222;-86
2022/04/20 04:06:44;;;;;;;0.70;0.70;;;4.80;72.20;;;3.97;58.92;94727.47;5057633;28;20215;-85
2022/04/20 04:09:11;;;;;;;0.70;0.70;;;4.80;72.20;;;3.83;59.10;94705.50;5067300;28;20203;-87
2022/04/20 04:11:39;;;;;;;0.70;0.70;;;4.80;72.20;;;4.04;58.97;94735.44;5043550;28;20198;-85
2022/04/20 04:14:07;;;;;;;0.80;0.80;;;4.90;72.30;;;3.92;59.17;94721.91;5044307;28;20230;-86
2022/04/20 04:16:39;;;;;;;0.70;0.70;;;4.90;72.30;;;4.03;59.12;94728.59;5042394;28;20206;-86
2022/04/20 04:19:08;;;;;;;0.80;0.80;;;4.90;72.30;;;4.08;59.02;94736.75;5059605;28;20219;-86
2022/04/20 04:21:37;;;;;;;0.60;0.60;;;4.90;72.30;;;4.10;59.04;94730.44;5058943;28;20195;-85
2022/04/20 04:24:34;;;;;;;0.90;0.90;;;5.00;72.40;;;4.12;59.11;94731.09;5044457;28;20265;-86
2022/04/20 04:26:59;;;;;;;0.80;0.80;;;5.00;72.30;;;4.14;58.75;94736.13;5076026;28;20195;-85
2022/04/20 04:29:28;;;;;;;0.80;0.80;;;5.00;72.40;;;4.13;59.21;94727.53;5057199;28;20254;-86
2022/04/20 04:31:55;;;;;;;0.70;0.70;;;5.00;72.40;;;4.20;58.91;94738.09;5057099;28;20209;-86
2022/04/20 04:34:23;;;;;;;0.70;0.70;;;5.00;72.40;;;4.22;58.87;94735.34;5059967;28;20246;-86
2022/04/20 04:36:56;;;;;;;0.80;0.80;;;5.10;72.50;;;4.17;59.14;94730.63;5043600;28;20664;-86
2022/04/20 04:39:24;;;;;;;0.80;0.80;;;5.10;72.40;;;4.26;58.77;94740.06;5076286;28;20215;-86
2022/04/20 04:41:52;;;;;;;0.80;0.80;;;5.10;72.50;;;4.14;58.88;94716.16;5060318;28;20198;-86
2022/04/20 04:44:20;;;;;;;0.90;0.90;;;5.10;72.50;;;4.23;58.95;94739.56;5041239;28;20325;-86
2022/04/20 04:49:51;;;;;;;1.00;1.00;;;5.10;72.50;;;4.18;59.16;94741.81;5063726;28;20218;-86
2022/04/20 04:52:18;;;;;;;0.90;0.90;;;5.10;72.50;;;4.18;58.83;94742.63;5041727;28;20236;-86
2022/04/20 04:54:53;;;;;;;0.77;0.77;;;5.10;72.50;;;4.16;58.54;94735.00;5063211;28;20219;-86
2022/04/20 04:57:20;;;;;;;0.80;0.80;;;5.10;72.50;;;4.32;58.76;94744.63;5057730;28;20438;-87
2022/04/20 04:59:47;;;;;;;0.80;0.80;;;5.10;72.50;;;4.37;58.70;94746.75;5043968;28;20285;-87
2022/04/20 05:02:20;;;;;;;0.80;0.80;;;5.10;72.50;;;4.43;58.96;94747.91;5074215;28;20198;-87
2022/04/20 05:04:48;;;;;;;0.70;0.70;;;5.20;72.50;;;4.36;58.69;94733.91;5041927;28;20301;-87
2022/04/20 05:07:16;;;;;;;0.80;0.80;;;5.20;72.50;;;4.51;58.70;94753.13;5042526;28;20194;-86
2022/04/20 05:10:04;;;;;;;0.70;0.70;;;5.20;72.50;;;4.52;58.87;94754.75;5069547;28;20218;-87
2022/04/20 05:12:36;;;;;;;0.70;0.70;;;5.30;72.60;;;4.49;58.63;94742.06;5075442;28;20285;-87
2022/04/20 05:15:05;;;;;;;0.80;0.80;;;5.30;72.60;;;4.43;58.78;94730.56;5042944;28;20244;-87
2022/04/20 05:17:33;;;;;;;0.85;0.85;;;5.30;72.60;;;4.63;58.76;94759.66;5064633;28;20201;-87
2022/04/20 05:20:00;;;;;;;0.80;0.80;;;5.40;72.70;;;4.67;58.59;94756.75;5041802;28;20226;-87
2022/04/20 05:22:27;;;;;;;0.80;0.80;;;5.40;72.70;;;4.69;58.63;94755.59;5074503;28;20285;-87
2022/04/20 05:24:56;;;;;;;0.80;0.80;;;5.40;72.70;;;4.71;58.36;94752.84;5066681;28;20214;-87
2022/04/20 05:27:24;;;;;;;0.70;0.70;;;5.40;72.70;;;4.76;58.79;94756.59;5041231;28;20221;-87
2022/04/20 05:30:03;;;;;;;0.70;0.70;;;5.50;72.70;;;4.75;58.65;94751.56;5044686;28;20226;-87
2022/04/20 05:32:31;;;;;;;0.80;0.80;;;5.50;72.70;;;4.83;58.31;94755.97;5048853;28;20191;-87
2022/04/20 05:35:03;;;;;;;0.70;0.70;;;5.50;72.70;;;4.86;58.79;94758.22;5043966;28;20254;-88
2022/04/20 05:43:10;;;;;;;0.70;0.70;;;5.60;72.60;;;4.87;58.48;94759.84;5060266;28;20560;-87
2022/04/20 05:45:39;;;;;;;0.60;0.60;;;5.60;72.50;;;4.87;58.44;94762.44;5038373;28;20215;-87
2022/04/20 05:48:25;;;;;;;0.80;0.80;;;5.70;72.70;;;4.92;58.93;94766.22;5043795;28;20211;-87
2022/04/20 05:50:55;;;;;;;0.65;0.65;;;5.60;72.70;;;4.85;58.63;94751.44;5041976;28;20222;-87
2022/04/20 05:53:25;;;;;;;0.75;0.75;;;5.70;72.80;;;5.02;58.82;94760.84;5063197;28;20674;-87
2022/04/20 05:55:53;;;;;;;0.68;0.68;;;5.70;72.80;;;5.08;58.76;94755.00;5065117;28;20215;-87
2022/04/20 05:58:20;;;;;;;0.70;0.70;;;5.80;72.90;;;5.17;58.76;94770.63;5066586;28;20197;-87
2022/04/20 06:00:49;;;;;;;0.60;0.60;;;5.80;73.80;;;5.20;58.59;94767.69;5041873;28;20215;-87
2022/04/20 06:03:40;;;;;;;0.80;0.80;;;5.80;72.70;;;5.26;58.56;94770.47;5074429;28;20206;-88
2022/04/20 06:06:21;;;;;;;0.70;0.70;;;5.90;73.00;;;5.26;58.63;94764.44;5075938;28;20193;-87
2022/04/20 06:08:51;;;;;;;0.68;0.68;;;5.90;72.80;;;5.31;58.72;94762.19;5058176;28;20263;-87
2022/04/20 06:11:33;;;;;;;0.80;0.80;;;6.00;72.60;;;5.33;58.61;94769.81;5043629;28;20178;-87
2022/04/20 06:14:00;;;;;;;0.60;0.60;;;6.00;72.50;;;5.21;58.58;94746.75;5056644;28;20755;-88
2022/04/20 06:16:50;;;;;;;0.60;0.60;;;6.10;73.60;;;5.36;58.96;94777.28;5056403;28;20201;-87
2022/04/20 06:19:27;;;;;;;0.70;0.70;;;6.10;72.70;;;5.38;59.24;94762.31;5040604;28;20251;-87
2022/04/20 06:22:06;;;;;;;0.70;0.70;;;6.10;72.90;;;5.39;59.19;94763.97;5041152;28;20259;-87
2022/04/20 06:24:54;;;;;;;0.70;0.70;;;6.10;72.70;;;5.35;58.94;94758.25;5067771;28;20223;-87
2022/04/20 06:27:33;;;;;;;0.70;0.70;;;6.10;72.80;;;5.42;59.03;94772.25;5064324;28;20201;-87
2022/04/20 06:30:18;;;;;;;0.80;0.80;;;6.10;72.90;;;5.54;59.05;94775.34;5075358;28;20743;-87
2022/04/20 06:33:04;;;;;;;0.80;0.80;;;6.20;73.20;;;5.70;58.97;94773.69;5062306;28;20679;-87
2022/04/20 06:35:51;;;;;;;0.70;0.70;;;6.20;73.20;;;5.82;58.81;94758.53;5074360;28;20244;-87
2022/04/20 06:38:38;;;;;;;0.80;0.80;;;6.30;73.30;;;6.07;58.66;94769.75;5061576;28;20664;-86
2022/04/20 06:41:11;;;;;;;0.70;0.70;;;6.40;73.40;;;6.16;58.32;94754.91;5048161;28;20205;-86
2022/04/20 06:43:38;;;;;;;0.70;0.70;;;6.50;73.40;;;6.22;58.14;94752.41;5079387;28;20198;-86
2022/04/20 06:46:24;;;;;;;0.70;0.70;;;6.60;73.10;;;6.32;58.07;94767.84;5068001;28;20667;-87
2022/04/20 06:49:10;;;;;;;0.60;0.60;;;6.70;72.80;;;6.36;58.12;94769.16;5079762;28;20347;-86
2022/04/20 07:00:17;;;;;;;0.60;0.60;;;7.00;72.50;;;6.52;57.73;94759.66;5057551;28;20234;-86
2022/04/20 07:03:06;;;;;;;0.60;0.60;;;7.10;72.50;;;6.66;57.63;94758.91;5080975;28;20187;-86
2022/04/20 07:05:46;;;;;;;0.70;0.70;;;7.10;72.40;;;6.68;57.95;94756.13;5065041;28;20692;-86
2022/04/20 07:08:27;;;;;;;0.60;0.60;;;7.20;72.40;;;6.83;57.59;94766.63;5063336;28;20633;-87
2022/04/20 07:11:04;;;;;;;0.60;0.60;;;7.20;72.30;;;6.91;57.49;94766.59;5071020;28;20301;-86
2022/04/20 07:13:33;;;;;;;0.70;0.70;;;7.30;72.30;;;6.93;57.64;94769.81;5061550;28;20219;-86
2022/04/20 07:16:00;;;;;;;0.60;0.60;;;7.40;72.30;;;6.97;57.45;94763.28;5060817;28;20640;-86
2022/04/20 07:18:31;;;;;;;0.60;0.60;;;7.40;72.10;;;7.02;57.26;94763.59;5062183;28;20587;-85
2022/04/20 07:20:59;;;;;;;0.60;0.60;;;7.50;72.10;;;7.08;57.45;94759.47;5078257;28;20224;-85
2022/04/20 07:23:35;;;;;;;0.70;0.70;;;7.50;72.20;;;7.17;57.31;94760.22;5061684;28;20190;-85
2022/04/20 07:26:22;;;;;;;0.60;0.60;;;7.60;72.00;;;7.17;57.20;94747.19;5071315;28;20219;-85
2022/04/20 07:29:03;;;;;;;0.50;0.50;;;7.60;71.90;;;7.35;56.92;94760.72;5079562;28;20222;-86
2022/04/20 07:31:52;;;;;;;0.50;0.50;;;7.70;72.10;;;7.47;57.00;94755.91;5066988;28;20201;-85
2022/04/20 07:34:38;;;;;;;0.52;0.52;;;7.80;72.20;;;7.38;57.05;94730.88;5080841;28;20249;-85
2022/04/20 07:37:25;;;;;;;0.60;0.60;;;7.80;72.10;;;7.57;56.91;94747.84;5064396;28;20245;-86
2022/04/20 07:40:15;;;;;;;0.70;0.70;;;7.90;72.10;;;7.65;56.94;94750.38;5094631;28;20244;-86
2022/04/20 07:43:02;;;;;;;0.70;0.70;;;8.00;71.90;;;7.69;56.92;94735.19;5080288;28;20221;-86
2022/04/20 07:45:39;;;;;;;0.60;0.60;;;8.10;72.20;;;7.92;56.96;94761.22;5062550;28;20222;-84
2022/04/20 07:48:09;;;;;;;0.70;0.70;;;8.10;72.20;;;8.09;56.81;94755.81;5078583;28;20210;-87
2022/04/20 07:50:42;;;;;;;0.60;0.60;;;8.20;72.40;;;8.18;56.58;94752.94;5061179;28;20241;-85
2022/04/20 07:53:32;;;;;;;0.60;0.60;;;8.30;72.30;;;8.28;56.16;94754.47;5081012;28;20247;-85
2022/04/20 07:56:17;;;;;;;0.60;0.60;;;8.40;72.10;;;8.41;56.45;94740.75;5066082;28;20197;-86
2022/04/20 07:59:00;;;;;;;0.60;0.60;;;8.50;72.10;;;8.58;55.76;94749.22;5063260;28;20215;-85
2022/04/20 08:01:40;;;;;;;0.60;0.60;;;8.70;71.80;;;8.57;55.58;94747.59;5079363;28;20206;-86
2022/04/20 08:04:33;;;;;;;0.60;0.60;;;8.80;71.60;;;8.67;55.58;94753.34;5081045;28;20240;-86
2022/04/20 08:07:07;;;;;;;0.60;0.60;;;8.80;71.50;;;8.69;55.72;94755.78;5077414;28;20359;-86
2022/04/20 08:09:36;;;;;;;0.60;0.60;;;8.90;71.50;;;8.72;55.75;94751.00;5060209;28;20242;-85
2022/04/20 08:12:03;;;;;;;0.80;0.80;;;8.90;71.50;;;8.76;55.29;94751.44;5060567;28;20371;-86
2022/04/20 08:14:31;;;;;;;0.70;0.70;;;9.00;71.30;;;8.93;55.90;94757.25;5060857;28;20235;-87
2022/04/20 08:17:27;;;;;;;0.50;0.50;;;9.10;71.70;;;9.15;55.75;94750.22;5077245;28;20218;-86
2022/04/20 08:20:00;;;;;;;0.70;0.70;;;9.20;71.80;;;9.25;55.57;94742.88;5078330;28;20219;-86
2022/04/20 08:22:40;;;;;;;0.60;0.60;;;9.30;71.70;;;9.19;54.96;94741.03;5077272;28;20663;-85
2022/04/20 08:25:12;;;;;;;0.50;0.50;;;9.40;71.20;;;9.28;55.24;94741.69;5077207;28;20227;-85
2022/04/20 08:27:40;;;;;;;0.60;0.60;;;9.50;71.30;;;9.34;55.43;94745.34;5060149;28;20619;-86
2022/04/20 08:30:08;;;;;;;0.70;0.70;;;9.50;71.30;;;9.43;54.93;94739.00;5060646;28;20248;-86
2022/04/20 08:32:38;;;;;;;0.60;0.60;;;9.60;71.20;;;9.48;55.04;94730.59;5077091;28;20198;-87
2022/04/20 08:35:06;;;;;;;0.60;0.60;;;9.60;71.20;;;9.65;54.95;94731.13;5058131;28;20250;-85
2022/04/20 08:37:33;;;;;;;0.60;0.60;;;9.70;71.30;;;9.70;55.00;94718.25;5058921;28;20191;-85
2022/04/20 08:40:00;;;;;;;0.70;0.70;;;9.80;71.50;;;9.87;54.93;94729.25;5051574;28;20217;-86
2022/04/20 08:42:30;;;;;;;0.50;0.50;;;9.90;71.50;;;9.87;54.76;94727.44;5056707;28;20297;-85
2022/04/20 08:45:02;;;;;;;0.50;0.50;;;10.00;70.10;;;9.86;54.65;94714.53;5057094;28;20695;-86
2022/04/20 08:47:39;;;;;;;0.50;0.50;;;10.00;69.80;;;9.95;54.93;94710.78;5069343;28;20234;-86
2022/04/20 08:50:09;;;;;;;0.70;0.70;;;10.10;69.60;;;10.09;54.50;94725.56;5056221;28;20214;-85
2022/04/20 08:52:37;;;;;;;0.50;0.50;;;10.20;69.70;;;10.05;54.04;94724.31;5047862;28;20244;-85
2022/04/20 08:55:18;;;;;;;0.60;0.60;;;10.20;69.30;;;9.99;54.52;94727.72;5072528;28;20234;-86
2022/04/20 08:57:48;;;;;;;0.50;0.50;;;10.30;69.80;;;9.88;54.13;94728.25;5071801;28;20198;-84
2022/04/20 09:00:39;;;;;;;0.70;0.70;;;10.30;68.90;;;9.78;54.34;94712.88;5051032;28;20260;-85
2022/04/20 09:03:05;;;;;;;0.60;0.60;;;10.20;68.80;;;9.67;54.61;94697.72;5060557;28;20190;-84
2022/04/20 09:05:34;;;;;;;0.57;0.57;;;10.20;69.20;;;9.80;54.89;94710.88;5092404;28;20267;-85
2022/04/20 09:08:13;;;;;;;0.70;0.70;;;10.20;69.60;;;9.90;55.25;94716.59;5072802;28;20248;-83
2022/04/20 09:10:40;;;;;;;0.70;0.70;;;10.20;69.50;;;9.82;54.96;94687.91;5058565;28;20297;-85
2022/04/20 09:13:11;;;;;;;0.50;0.50;;;10.20;69.60;;;10.11;54.97;94714.88;5050290;28;20195;-85
2022/04/20 09:15:40;;;;;;;0.60;0.60;;;10.30;70.60;;;10.27;55.15;94712.97;5049204;28;20600;-85
2022/04/20 09:18:10;;;;;;;0.50;0.50;;;10.30;70.00;;;10.38;54.61;94707.97;5057355;28;20197;-85
2022/04/20 09:20:38;;;;;;;0.70;0.70;;;10.40;69.80;;;10.32;54.50;94686.97;5040652;28;20214;-84
2022/04/20 09:23:13;;;;;;;0.50;0.50;;;10.50;69.60;;;10.48;54.13;94707.63;5055389;28;20190;-85
2022/04/20 09:25:50;;;;;;;0.57;0.57;;;10.60;69.30;;;10.54;54.63;94693.72;5072106;28;20289;-84
2022/04/20 09:28:19;;;;;;;0.50;0.50;;;10.70;69.70;;;10.68;54.50;94702.44;5049662;28;20747;-85
2022/04/20 09:30:52;;;;;;;0.60;0.60;;;10.80;69.60;;;10.73;54.22;94705.28;5072010;28;20302;-85
2022/04/20 09:33:20;;;;;;;0.55;0.55;;;10.90;69.60;;;10.79;54.16;94697.63;5057457;28;20202;-84
2022/04/20 09:35:51;;;;;;;0.70;0.70;;;10.90;69.40;;;10.64;53.79;94685.47;5054760;28;20679;-85
2022/04/20 09:38:24;;;;;;;0.60;0.60;;;11.00;68.90;;;10.71;53.78;94675.00;5057090;28;20625;-84
2022/04/20 09:40:52;;;;;;;0.80;0.80;;;11.00;68.80;;;10.96;53.97;94688.38;5057701;28;20218;-85
2022/04/20 09:43:21;;;;;;;0.60;0.60;;;11.00;69.30;;;11.05;53.76;94691.63;5050225;28;20206;-85
2022/04/20 09:49:11;;;;;;;0.60;0.60;;;11.20;68.80;;;11.15;54.12;94684.16;5076688;28;20202;-85
2022/04/20 09:51:42;;;;;;;0.50;0.50;;;11.20;68.90;;;11.33;53.59;94685.41;5074559;28;20174;-85
2022/04/20 09:54:29;;;;;;;0.40;0.40;;;11.30;69.10;;;11.40;52.92;94685.38;5073686;28;20218;-84
2022/04/20 09:57:16;;;;;;;0.70;0.70;;;11.40;68.70;;;11.49;53.24;94686.81;5052859;28;20248;-85
2022/04/20 09:59:59;;;;;;;0.60;0.60;;;11.50;68.00;;;11.59;53.22;94681.13;5070496;28;20267;-85
2022/04/20 10:02:53;;;;;;;0.50;0.50;;;11.60;68.50;;;11.72;52.52;94667.97;5089162;28;20187;-85
2022/04/20 10:05:23;;;;;;;0.60;0.60;;;11.70;68.20;;;11.89;52.32;94685.94;5050175;28;20241;-86
2022/04/20 10:07:54;;;;;;;0.60;0.60;;;11.70;68.40;;;12.01;52.41;94676.41;5056868;28;20202;-85
2022/04/20 10:10:23;;;;;;;0.50;0.50;;;11.80;68.60;;;12.18;52.49;94679.41;5042473;28;20218;-86
2022/04/20 10:12:54;;;;;;;0.70;0.70;;;12.00;69.60;;;12.26;52.42;94670.50;5041498;28;20194;-85
2022/04/20 10:18:20;;;;;;;0.43;0.43;;;12.20;67.50;;;12.33;51.44;94664.19;5073300;28;20670;-85
2022/04/20 10:20:57;;;;;;;0.60;0.60;;;12.30;67.00;;;12.25;50.62;94653.91;5071780;28;20224;-85
2022/04/20 10:23:25;;;;;;;0.60;0.60;;;12.40;66.50;;;12.30;50.65;94656.72;5056797;28;20201;-85
2022/04/20 10:25:53;;;;;;;0.60;0.60;;;12.30;66.70;;;12.35;51.28;94661.34;5041171;28;20718;-85
2022/04/20 10:29:03;;;;;;;0.50;0.50;;;12.40;67.10;;;12.35;51.46;94642.94;5058432;28;20202;-86
2022/04/20 10:32:02;;;;;;;0.60;0.60;;;12.50;67.20;;;12.52;50.83;94658.25;5057859;28;20194;-84
2022/04/20 10:34:30;;;;;;;0.70;0.70;;;12.60;66.50;;;12.50;50.08;94653.22;5041499;28;20229;-84
2022/04/20 10:37:25;;;;;;;0.60;0.60;;;12.60;66.30;;;12.45;49.09;94659.09;5046119;28;20212;-85
2022/04/20 10:40:18;;;;;;;0.50;0.50;;;12.60;65.50;;;12.45;48.59;94651.19;5065122;28;20256;-85
2022/04/20 10:43:23;;;;;;;0.60;0.60;;;12.60;65.20;;;12.51;49.29;94652.16;5047623;28;20209;-85
2022/04/20 10:46:05;;;;;;;0.60;0.60;;;12.60;65.40;;;12.64;49.35;94644.19;5042095;28;20320;-85
2022/04/20 10:48:58;;;;;;;0.55;0.55;;;12.70;65.80;;;12.65;49.41;94645.81;5075372;28;20616;-85
2022/04/20 10:51:46;;;;;;;0.60;0.60;;;12.70;65.70;;;12.59;48.88;94646.66;5058401;28;20668;-86
2022/04/20 10:54:29;;;;;;;0.60;0.60;;;12.70;64.70;;;12.56;48.97;94647.09;5058926;28;20224;-85
2022/04/20 10:57:00;;;;;;;0.60;0.60;;;12.70;64.70;;;12.64;49.07;94651.31;5058282;28;20197;-86
2022/04/20 10:59:29;;;;;;;0.50;0.50;;;12.70;65.00;;;12.82;49.41;94638.22;5062587;28;20223;-85
2022/04/20 11:01:59;;;;;;;0.60;0.60;;;12.80;65.80;;;13.00;49.02;94634.09;5036110;28;20210;-84
2022/04/20 11:04:48;;;;;;;0.60;0.60;;;12.80;65.30;;;12.98;48.04;94641.38;5038817;28;20253;-85
2022/04/20 11:07:26;;;;;;;0.60;0.60;;;13.00;64.90;;;12.87;48.04;94642.06;5046404;28;20528;-85
2022/04/20 11:10:05;;;;;;;0.50;0.50;;;13.00;64.70;;;12.71;48.10;94635.50;5037045;28;20314;-86
2022/04/20 11:18:40;;;;;;;0.60;0.60;;;12.90;64.10;;;12.84;47.88;94631.94;5071967;28;20264;-85
2022/04/20 11:21:31;;;;;;;0.80;0.80;;;12.90;64.10;;;12.81;47.93;94630.56;5041926;28;20622;-85
2022/04/20 11:24:11;;;;;;;0.60;0.60;;;13.00;64.50;;;12.77;47.90;94622.28;5054793;28;20198;-86
2022/04/20 11:26:49;;;;;;;0.70;0.70;;;13.00;63.90;;;12.82;47.74;94622.44;5057360;28;20186;-85
2022/04/20 11:29:22;;;;;;;0.60;0.60;;;13.00;64.20;;;12.80;47.56;94613.97;5024568;28;20218;-85
2022/04/20 11:31:57;;;;;;;0.60;0.60;;;13.00;63.60;;;12.97;47.86;94637.13;5041807;28;20195;-85